createdAt,value
2019-04-10T00:02:01.533Z,14.95
2019-04-10T00:04:29.744Z,15.23
2019-04-10T00:07:08.379Z,17.48
2019-04-10T00:09:28.576Z,19.70
2019-04-10T00:11:57.070Z,19.75
2019-04-10T00:14:26.131Z,18.07
2019-04-10T00:16:54.590Z,17.20
2019-04-10T00:19:23.158Z,17.50
2019-04-10T00:21:51.613Z,19.02
2019-04-10T00:24:20.039Z,17.67
2019-04-10T00:26:48.442Z,16.73
2019-04-10T00:29:16.893Z,15.32
2019-04-10T00:31:45.297Z,16.15
2019-04-10T00:34:17.701Z,14.50
2019-04-10T00:36:46.249Z,15.45
2019-04-10T00:39:14.794Z,15.93
2019-04-10T00:41:44.109Z,16.45
2019-04-10T00:44:13.355Z,18.48
2019-04-10T00:46:42.130Z,18.27
2019-04-10T00:49:10.685Z,16.00
2019-04-10T00:51:39.503Z,17.67
2019-04-10T00:54:08.036Z,17.40
2019-04-10T00:56:36.845Z,17.95
2019-04-10T00:59:06.012Z,16.62
2019-04-10T01:01:34.475Z,17.32
2019-04-10T01:04:02.932Z,15.95
2019-04-10T01:06:32.286Z,16.32
2019-04-10T01:09:01.387Z,16.17
2019-04-10T01:11:30.751Z,17.40
2019-04-10T01:13:59.312Z,16.87
2019-04-10T01:16:27.749Z,16.20
2019-04-10T01:18:56.446Z,18.48
2019-04-10T01:21:25.035Z,23.47
2019-04-10T01:23:53.464Z,24.40
2019-04-10T01:26:21.976Z,36.00
2019-04-10T01:28:51.233Z,39.55
2019-04-10T01:31:20.066Z,40.00
2019-04-10T01:33:49.234Z,42.40
2019-04-10T01:36:18.607Z,49.60
2019-04-10T01:38:47.147Z,52.35
2019-04-10T01:41:15.706Z,57.50
2019-04-10T01:43:44.190Z,56.85
2019-04-10T01:46:13.776Z,58.33
2019-04-10T01:48:42.248Z,59.65
2019-04-10T01:51:10.840Z,58.42
2019-04-10T01:53:39.403Z,60.05
2019-04-10T01:56:21.217Z,60.70
2019-04-10T01:58:39.556Z,59.35
2019-04-10T02:01:28.361Z,61.80
2019-04-10T02:03:56.857Z,60.65
2019-04-10T02:06:25.380Z,60.48
2019-04-10T02:08:54.224Z,60.98
2019-04-10T02:11:23.894Z,58.78
2019-04-10T02:13:52.433Z,62.45
2019-04-10T02:16:20.915Z,61.35
2019-04-10T02:18:49.968Z,62.30
2019-04-10T02:21:18.513Z,59.18
2019-04-10T02:23:46.993Z,60.65
2019-04-10T02:26:15.456Z,61.23
2019-04-10T02:28:44.940Z,60.55
2019-04-10T02:31:14.688Z,60.80
2019-04-10T02:33:43.331Z,61.70
2019-04-10T02:36:13.031Z,60.20
2019-04-10T02:38:56.865Z,61.55
2019-04-10T02:41:12.133Z,61.28
2019-04-10T02:43:40.764Z,60.28
2019-04-10T02:46:11.285Z,60.23
2019-04-10T02:48:41.526Z,58.00
2019-04-10T02:51:10.217Z,59.05
2019-04-10T02:53:39.345Z,61.30
2019-04-10T02:56:07.993Z,59.20
2019-04-10T02:58:36.447Z,59.48
2019-04-10T03:01:05.001Z,60.67
2019-04-10T03:03:34.292Z,58.60
2019-04-10T03:06:02.873Z,57.73
2019-04-10T03:08:44.771Z,60.10
2019-04-10T03:11:04.130Z,58.17
2019-04-10T03:13:33.537Z,58.65
2019-04-10T03:16:03.130Z,57.48
2019-04-10T03:18:32.674Z,59.35
2019-04-10T03:21:01.218Z,58.33
2019-04-10T03:23:29.647Z,60.23
2019-04-10T03:25:59.378Z,58.45
2019-04-10T03:28:29.128Z,58.28
2019-04-10T03:30:59.967Z,59.25
2019-04-10T03:33:32.756Z,59.63
2019-04-10T03:36:00.101Z,60.95
2019-04-10T03:38:28.596Z,59.55
2019-04-10T03:40:57.027Z,61.00
2019-04-10T03:43:25.832Z,58.23
2019-04-10T03:45:55.129Z,59.90
2019-04-10T03:48:23.702Z,60.67
2019-04-10T03:50:52.236Z,59.98
2019-04-10T03:53:20.753Z,60.45
2019-04-10T03:55:49.420Z,61.28
2019-04-10T03:58:19.697Z,59.42
2019-04-10T04:00:48.225Z,59.73
2019-04-10T04:03:16.669Z,62.65
2019-04-10T04:05:45.129Z,61.15
2019-04-10T04:08:13.590Z,62.17
2019-04-10T04:10:42.612Z,62.93
2019-04-10T04:13:11.193Z,63.42
2019-04-10T04:15:39.761Z,60.08
2019-04-10T04:18:08.874Z,62.95
2019-04-10T04:20:37.455Z,62.95
2019-04-10T04:23:05.890Z,64.32
2019-04-10T04:25:34.509Z,63.35
2019-04-10T04:28:03.050Z,64.35
2019-04-10T04:30:32.066Z,66.70
2019-04-10T04:33:00.582Z,68.02
2019-04-10T04:35:30.073Z,67.70
2019-04-10T04:37:58.518Z,68.22
2019-04-10T04:40:27.851Z,70.47
2019-04-10T04:42:56.481Z,67.95
2019-04-10T04:45:25.668Z,71.65
2019-04-10T04:47:54.168Z,73.47
2019-04-10T04:50:22.610Z,69.87
2019-04-10T04:52:51.992Z,69.20
2019-04-10T04:55:20.599Z,71.28
2019-04-10T04:57:49.179Z,69.30
2019-04-10T05:00:17.697Z,70.57
2019-04-10T05:02:47.030Z,72.05
2019-04-10T05:05:16.424Z,74.05
2019-04-10T05:07:55.520Z,71.75
2019-04-10T05:10:17.340Z,73.00
2019-04-10T05:12:45.851Z,70.85
2019-04-10T05:15:14.427Z,69.25
2019-04-10T05:17:42.869Z,69.53
2019-04-10T05:20:11.366Z,67.40
2019-04-10T05:22:39.893Z,69.32
2019-04-10T05:25:11.447Z,70.47
2019-04-10T05:27:39.893Z,72.32
2019-04-10T05:30:08.558Z,69.22
2019-04-10T05:32:37.603Z,71.95
2019-04-10T05:35:10.186Z,73.15
2019-04-10T05:37:40.086Z,69.58
2019-04-10T05:40:11.898Z,70.40
2019-04-10T05:42:41.341Z,74.42
2019-04-10T05:45:10.336Z,74.55
2019-04-10T05:47:38.877Z,75.92
2019-04-10T05:50:07.907Z,77.80
2019-04-10T05:52:37.390Z,74.22
2019-04-10T05:55:06.502Z,73.83
2019-04-10T05:57:37.528Z,72.00
2019-04-10T06:00:10.414Z,72.75
2019-04-10T06:02:39.812Z,72.97
2019-04-10T06:05:08.470Z,71.02
2019-04-10T06:07:37.147Z,72.20
2019-04-10T06:10:10.339Z,69.87
2019-04-10T06:12:38.416Z,67.78
2019-04-10T06:15:08.665Z,70.37
2019-04-10T06:17:37.192Z,74.07
2019-04-10T06:20:09.035Z,73.33
2019-04-10T06:22:38.783Z,70.25
2019-04-10T06:25:09.198Z,72.55
2019-04-10T06:27:38.861Z,70.50
2019-04-10T06:30:08.144Z,71.85
2019-04-10T06:32:37.596Z,71.72
2019-04-10T06:35:08.368Z,70.83
2019-04-10T06:37:37.905Z,70.32
2019-04-10T06:40:15.286Z,74.10
2019-04-10T06:42:46.178Z,70.40
2019-04-10T06:45:07.557Z,69.45
2019-04-10T06:47:36.211Z,68.83
2019-04-10T06:50:06.880Z,68.35
2019-04-10T06:52:35.294Z,67.70
2019-04-10T06:55:05.599Z,66.75
2019-04-10T06:57:47.633Z,66.45
2019-04-10T07:00:12.222Z,63.83
2019-04-10T07:02:38.972Z,62.53
2019-04-10T07:05:10.437Z,60.83
2019-04-10T07:07:47.498Z,59.77
2019-04-10T07:10:21.518Z,59.50
2019-04-10T07:12:39.767Z,58.80
2019-04-10T07:15:08.857Z,58.02
2019-04-10T07:17:40.644Z,54.77
2019-04-10T07:20:07.999Z,57.08
2019-04-10T07:22:36.649Z,53.55
2019-04-10T07:25:09.312Z,52.88
2019-04-10T07:27:38.589Z,53.55
2019-04-10T07:30:08.152Z,58.73
2019-04-10T07:32:42.079Z,52.00
2019-04-10T07:35:07.234Z,55.98
2019-04-10T07:37:36.219Z,54.15
2019-04-10T07:40:07.918Z,51.45
2019-04-10T07:42:38.840Z,50.67
2019-04-10T07:45:07.824Z,53.23
2019-04-10T07:47:37.874Z,48.52
2019-04-10T07:50:08.775Z,50.10
2019-04-10T07:52:37.507Z,46.85
2019-04-10T07:55:06.576Z,48.63
2019-04-10T07:57:36.280Z,48.98
2019-04-10T08:00:08.656Z,47.78
2019-04-10T08:02:38.516Z,51.55
2019-04-10T08:05:08.178Z,48.33
2019-04-10T08:07:38.793Z,47.58
2019-04-10T08:10:07.934Z,50.40
2019-04-10T08:12:44.620Z,45.58
2019-04-10T08:15:09.120Z,46.10
2019-04-10T08:17:38.867Z,43.90
2019-04-10T08:20:07.941Z,45.90
2019-04-10T08:22:37.096Z,43.78
2019-04-10T08:25:08.728Z,42.33
2019-04-10T08:27:38.494Z,41.25
2019-04-10T08:30:10.850Z,42.00
2019-04-10T08:32:50.907Z,42.90
2019-04-10T08:35:09.605Z,39.95
2019-04-10T08:37:39.061Z,39.92
2019-04-10T08:40:09.601Z,39.63
2019-04-10T08:42:40.200Z,38.20
2019-04-10T08:45:09.497Z,38.60
2019-04-10T08:47:37.956Z,38.88
2019-04-10T08:50:07.855Z,36.93
2019-04-10T08:52:37.063Z,36.73
2019-04-10T08:55:06.291Z,37.15
2019-04-10T08:57:34.717Z,36.58
2019-04-10T09:00:04.851Z,35.95
2019-04-10T09:02:33.898Z,35.40
2019-04-10T09:05:03.536Z,35.73
2019-04-10T09:07:33.624Z,34.55
2019-04-10T09:10:02.066Z,35.13
2019-04-10T09:12:31.586Z,35.00
2019-04-10T09:15:01.343Z,35.98
2019-04-10T09:17:31.233Z,36.00
2019-04-10T09:20:00.606Z,34.78
2019-04-10T09:22:41.885Z,34.50
2019-04-10T09:25:00.578Z,32.93
2019-04-10T09:27:29.173Z,33.40
2019-04-10T09:29:57.706Z,32.95
2019-04-10T09:32:26.469Z,32.23
2019-04-10T09:34:56.068Z,32.10
2019-04-10T09:37:24.642Z,33.15
2019-04-10T09:39:53.922Z,33.78
2019-04-10T09:42:23.600Z,33.28
2019-04-10T09:44:52.813Z,34.43
2019-04-10T09:47:22.491Z,34.20
2019-04-10T09:49:51.388Z,32.40
2019-04-10T09:52:19.912Z,32.25
2019-04-10T09:54:48.948Z,31.62
2019-04-10T09:57:17.824Z,31.33
2019-04-10T09:59:47.304Z,31.12
2019-04-10T10:02:16.235Z,30.52
2019-04-10T10:04:46.009Z,30.68
2019-04-10T10:07:14.471Z,29.12
2019-04-10T10:09:43.133Z,30.40
2019-04-10T10:12:11.837Z,29.40
2019-04-10T10:14:40.342Z,29.90
2019-04-10T10:17:08.941Z,29.87
2019-04-10T10:19:39.171Z,30.20
2019-04-10T10:22:07.697Z,30.23
2019-04-10T10:24:36.140Z,29.07
2019-04-10T10:27:05.365Z,29.35
2019-04-10T10:29:37.450Z,29.12
2019-04-10T10:32:06.134Z,28.47
2019-04-10T10:34:34.623Z,28.73
2019-04-10T10:37:03.952Z,29.72
2019-04-10T10:39:32.418Z,28.60
2019-04-10T10:42:00.874Z,26.62
2019-04-10T10:44:30.124Z,27.93
2019-04-10T10:46:59.946Z,27.35
2019-04-10T10:49:28.666Z,27.73
2019-04-10T10:51:57.309Z,27.05
2019-04-10T10:54:26.841Z,26.35
2019-04-10T10:56:56.049Z,26.73
2019-04-10T10:59:25.234Z,26.42
2019-04-10T11:01:53.920Z,26.35
2019-04-10T11:04:23.233Z,26.62
2019-04-10T11:06:59.376Z,27.00
2019-04-10T11:09:22.105Z,27.00
2019-04-10T11:11:50.565Z,26.77
2019-04-10T11:14:19.177Z,25.60
2019-04-10T11:16:47.717Z,27.73
2019-04-10T11:19:17.293Z,26.02
2019-04-10T11:21:47.064Z,25.12
2019-04-10T11:24:15.712Z,26.50
2019-04-10T11:26:44.179Z,25.23
2019-04-10T11:29:14.209Z,25.08
2019-04-10T11:31:42.957Z,24.15
2019-04-10T11:34:11.471Z,24.25
2019-04-10T11:36:40.095Z,24.37
2019-04-10T11:39:19.279Z,25.12
2019-04-10T11:41:41.313Z,23.60
2019-04-10T11:44:11.519Z,25.02
2019-04-10T11:46:41.893Z,23.50
2019-04-10T11:49:13.874Z,24.85
2019-04-10T11:51:41.079Z,23.77
2019-04-10T11:54:12.965Z,24.40
2019-04-10T11:56:39.920Z,24.47
2019-04-10T11:59:11.280Z,24.63
2019-04-10T12:01:39.362Z,27.90
2019-04-10T12:04:10.724Z,23.77
2019-04-10T12:06:40.309Z,23.65
2019-04-10T12:11:41.559Z,24.37
2019-04-10T12:14:11.096Z,22.82
2019-04-10T12:16:39.713Z,22.52
2019-04-10T12:19:10.953Z,22.50
2019-04-10T12:21:40.012Z,22.45
2019-04-10T12:24:09.525Z,21.70
2019-04-10T12:26:38.132Z,21.17
2019-04-10T12:29:06.737Z,20.92
2019-04-10T12:31:36.363Z,22.37
2019-04-10T12:34:05.168Z,21.10
2019-04-10T12:36:36.365Z,20.70
2019-04-10T12:39:07.908Z,21.45
2019-04-10T12:41:36.676Z,22.17
2019-04-10T12:44:05.363Z,21.97
2019-04-10T12:46:33.878Z,21.68
2019-04-10T12:49:03.739Z,21.23
2019-04-10T12:51:32.403Z,21.42
2019-04-10T12:54:01.163Z,20.45
2019-04-10T12:56:30.365Z,21.75
2019-04-10T12:58:59.356Z,20.48
2019-04-10T13:01:28.902Z,21.05
2019-04-10T13:03:57.872Z,20.27
2019-04-10T13:06:26.381Z,20.50
2019-04-10T13:09:05.058Z,20.25
2019-04-10T13:11:24.995Z,19.85
2019-04-10T13:13:54.565Z,20.08
2019-04-10T13:16:23.845Z,20.50
2019-04-10T13:18:52.455Z,20.12
2019-04-10T13:21:22.111Z,20.70
2019-04-10T13:24:10.937Z,19.07
2019-04-10T13:26:39.800Z,19.42
2019-04-10T13:29:08.352Z,19.95
2019-04-10T13:31:37.329Z,20.88
2019-04-10T13:34:05.975Z,19.65
2019-04-10T13:36:35.533Z,19.85
2019-04-10T13:39:06.672Z,20.55
2019-04-10T13:41:36.668Z,20.08
2019-04-10T13:44:06.492Z,20.02
2019-04-10T13:46:38.281Z,20.37
2019-04-10T13:49:09.520Z,20.27
2019-04-10T13:51:37.989Z,21.57
2019-04-10T13:54:06.525Z,19.85
2019-04-10T13:56:35.088Z,20.30
2019-04-10T13:59:04.672Z,21.17
2019-04-10T14:01:35.570Z,21.35
2019-04-10T14:04:05.024Z,21.45
2019-04-10T14:06:33.981Z,20.25
2019-04-10T14:09:22.523Z,20.72
2019-04-10T14:11:33.543Z,19.90
2019-04-10T14:14:04.512Z,19.85
2019-04-10T14:16:33.626Z,21.10
2019-04-10T14:19:03.288Z,19.67
2019-04-10T14:21:31.865Z,20.23
2019-04-10T14:24:02.747Z,19.60
2019-04-10T14:26:52.189Z,20.85
2019-04-10T14:29:22.648Z,19.98
2019-04-10T14:32:02.123Z,18.50
2019-04-10T14:34:30.585Z,19.17
2019-04-10T14:36:59.037Z,18.55
2019-04-10T14:39:31.935Z,19.50
2019-04-10T14:44:30.671Z,18.95
2019-04-10T14:47:00.236Z,18.73
2019-04-10T14:49:29.313Z,18.57
2019-04-10T14:51:58.897Z,18.62
2019-04-10T14:54:30.099Z,19.95
2019-04-10T14:56:59.608Z,19.12
2019-04-10T14:59:31.711Z,19.52
2019-04-10T15:02:02.263Z,19.98
2019-04-10T15:04:31.017Z,20.50
2019-04-10T15:06:59.731Z,19.70
2019-04-10T15:09:30.619Z,19.37
2019-04-10T15:12:00.778Z,18.45
2019-04-10T15:14:33.886Z,19.02
2019-04-10T15:17:06.618Z,18.60
2019-04-10T15:19:37.444Z,18.30
2019-04-10T15:22:11.558Z,17.52
2019-04-10T15:24:40.233Z,18.23
2019-04-10T15:27:11.155Z,18.80
2019-04-10T15:29:40.773Z,18.37
2019-04-10T15:32:10.836Z,19.00
2019-04-10T15:34:39.610Z,18.50
2019-04-10T15:37:08.855Z,19.25
2019-04-10T15:39:41.778Z,19.23
2019-04-10T15:42:14.207Z,19.32
2019-04-10T15:44:42.847Z,19.98
2019-04-10T15:47:19.693Z,22.02
2019-04-10T15:49:45.011Z,19.15
2019-04-10T15:52:14.413Z,20.82
2019-04-10T15:54:46.240Z,19.65
2019-04-10T15:57:14.698Z,18.98
2019-04-10T15:59:44.765Z,19.15
2019-04-10T16:02:13.302Z,19.80
2019-04-10T16:04:42.318Z,19.70
2019-04-10T16:07:14.501Z,18.55
2019-04-10T16:09:47.653Z,17.25
2019-04-10T16:12:18.633Z,18.60
2019-04-10T16:14:47.213Z,18.60
2019-04-10T16:17:19.964Z,20.08
2019-04-10T16:19:51.209Z,17.40
2019-04-10T16:22:21.433Z,18.82
2019-04-10T16:24:51.493Z,18.52
2019-04-10T16:27:20.164Z,18.05
2019-04-10T16:29:51.697Z,17.92
2019-04-10T16:32:21.837Z,17.80
2019-04-10T16:34:52.655Z,16.82
2019-04-10T16:37:24.268Z,14.90
2019-04-10T16:40:00.316Z,15.55
2019-04-10T16:42:24.625Z,17.70
2019-04-10T16:44:53.358Z,16.10
2019-04-10T16:47:23.716Z,15.60
2019-04-10T16:49:53.103Z,13.83
2019-04-10T16:52:21.718Z,14.53
2019-04-10T16:54:51.358Z,14.38
2019-04-10T16:57:20.690Z,14.78
2019-04-10T16:59:49.229Z,15.18
2019-04-10T17:02:17.901Z,15.75
2019-04-10T17:04:46.483Z,17.42
2019-04-10T17:07:15.036Z,14.07
2019-04-10T17:09:45.457Z,15.30
2019-04-10T17:12:14.021Z,14.15
2019-04-10T17:14:43.926Z,14.73
2019-04-10T17:17:12.593Z,14.45
2019-04-10T17:19:49.340Z,14.38
2019-04-10T17:22:12.446Z,15.15
2019-04-10T17:24:41.827Z,14.03
2019-04-10T17:27:11.184Z,14.15
2019-04-10T17:29:40.976Z,14.70
2019-04-10T17:32:10.988Z,16.05
2019-04-10T17:34:40.977Z,16.30
2019-04-10T17:37:09.831Z,17.77
2019-04-10T17:39:39.428Z,17.85
2019-04-10T17:42:08.393Z,15.23
2019-04-10T17:44:38.043Z,16.07
2019-04-10T17:47:08.666Z,15.25
2019-04-10T17:49:39.327Z,17.00
2019-04-10T17:52:08.250Z,16.15
2019-04-10T17:54:36.916Z,15.70
2019-04-10T17:57:07.168Z,15.18
2019-04-10T17:59:35.665Z,15.13
2019-04-10T18:02:06.086Z,14.65
2019-04-10T18:04:34.819Z,14.90
2019-04-10T18:07:03.882Z,14.70
2019-04-10T18:09:32.783Z,15.93
2019-04-10T18:12:01.889Z,15.63
2019-04-10T18:14:31.317Z,15.83
2019-04-10T18:17:02.513Z,16.73
2019-04-10T18:19:32.293Z,16.97
2019-04-10T18:22:03.721Z,16.25
2019-04-10T18:24:32.752Z,17.42
2019-04-10T18:27:01.358Z,17.07
2019-04-10T18:29:30.920Z,17.42
2019-04-10T18:32:00.930Z,16.55
2019-04-10T18:34:30.550Z,16.87
2019-04-10T18:37:04.434Z,17.15
2019-04-10T18:39:40.879Z,18.10
2019-04-10T18:42:09.729Z,18.02
2019-04-10T18:44:42.539Z,18.17
2019-04-10T18:47:14.544Z,18.48
2019-04-10T18:49:43.548Z,17.92
2019-04-10T18:52:15.000Z,16.62
2019-04-10T18:54:43.629Z,16.95
2019-04-10T18:57:12.073Z,16.87
2019-04-10T18:59:42.841Z,16.65
2019-04-10T19:02:30.359Z,16.52
2019-04-10T19:05:16.906Z,15.55
2019-04-10T19:07:46.204Z,15.58
2019-04-10T19:10:14.952Z,19.10
2019-04-10T19:12:43.481Z,20.48
2019-04-10T19:15:12.732Z,15.80
2019-04-10T19:17:41.945Z,15.83
2019-04-10T19:20:11.061Z,14.90
2019-04-10T19:22:40.130Z,17.73
2019-04-10T19:25:10.393Z,15.72
2019-04-10T19:27:40.733Z,15.60
2019-04-10T19:30:14.955Z,16.48
2019-04-10T19:32:43.755Z,16.35
2019-04-10T19:35:12.914Z,16.35
2019-04-10T19:37:42.670Z,16.40
2019-04-10T19:40:11.785Z,17.32
2019-04-10T19:42:41.688Z,16.25
2019-04-10T19:45:10.414Z,15.48
2019-04-10T19:47:38.950Z,16.52
2019-04-10T19:50:08.758Z,16.30
2019-04-10T19:52:38.369Z,18.52
2019-04-10T19:55:08.553Z,17.60
2019-04-10T19:57:37.416Z,16.62
2019-04-10T20:00:11.042Z,16.60
2019-04-10T20:02:43.603Z,17.23
2019-04-10T20:05:12.868Z,17.60
2019-04-10T20:07:41.481Z,18.75
2019-04-10T20:10:10.903Z,17.50
2019-04-10T20:12:40.406Z,17.95
2019-04-10T20:15:10.692Z,18.87
2019-04-10T20:17:39.917Z,18.12
2019-04-10T20:20:08.625Z,18.10
2019-04-10T20:22:39.120Z,19.15
2019-04-10T20:25:08.288Z,20.05
2019-04-10T20:27:40.264Z,21.80
2019-04-10T20:30:07.846Z,17.95
2019-04-10T20:32:36.451Z,20.08
2019-04-10T20:35:06.224Z,19.37
2019-04-10T20:37:34.736Z,22.90
2019-04-10T20:40:03.555Z,23.55
2019-04-10T20:42:32.188Z,35.80
2019-04-10T20:45:00.929Z,31.25
2019-04-10T20:47:29.444Z,24.57
2019-04-10T20:49:57.860Z,23.73
2019-04-10T20:52:26.446Z,22.95
2019-04-10T20:54:55.264Z,21.87
2019-04-10T20:57:23.893Z,21.10
2019-04-10T20:59:53.261Z,22.22
2019-04-10T21:02:22.345Z,21.62
2019-04-10T21:04:58.712Z,20.68
2019-04-10T21:07:21.346Z,20.52
2019-04-10T21:09:50.275Z,20.05
2019-04-10T21:12:21.027Z,25.02
2019-04-10T21:14:49.167Z,28.90
2019-04-10T21:17:17.617Z,25.85
2019-04-10T21:19:46.402Z,23.32
2019-04-10T21:22:15.851Z,22.45
2019-04-10T21:24:45.468Z,21.62
2019-04-10T21:27:14.163Z,20.30
2019-04-10T21:30:01.767Z,19.82
2019-04-10T21:32:32.781Z,19.73
2019-04-10T21:35:03.942Z,20.12
2019-04-10T21:37:32.648Z,21.05
2019-04-10T21:40:01.083Z,21.17
2019-04-10T21:42:29.827Z,22.93
2019-04-10T21:44:58.321Z,22.60
2019-04-10T21:47:27.662Z,23.35
2019-04-10T21:49:56.901Z,23.10
2019-04-10T21:52:28.309Z,22.60
2019-04-10T21:54:59.262Z,22.02
2019-04-10T21:57:26.956Z,23.65
2019-04-10T21:59:56.036Z,22.73
2019-04-10T22:02:24.685Z,22.70
2019-04-10T22:04:53.129Z,23.05
2019-04-10T22:07:40.513Z,21.05
2019-04-10T22:10:12.006Z,20.80
2019-04-10T22:12:46.958Z,21.97
2019-04-10T22:15:18.710Z,21.42
2019-04-10T22:17:48.000Z,21.05
2019-04-10T22:20:17.185Z,20.50
2019-04-10T22:22:45.815Z,20.17
2019-04-10T22:25:15.166Z,19.62
2019-04-10T22:27:43.775Z,19.65
2019-04-10T22:30:12.921Z,19.87
2019-04-10T22:32:41.350Z,20.88
2019-04-10T22:35:10.960Z,20.75
2019-04-10T22:37:39.970Z,21.10
2019-04-10T22:40:08.699Z,22.60
2019-04-10T22:42:44.046Z,21.20
2019-04-10T22:45:24.659Z,21.37
2019-04-10T22:47:52.713Z,22.48
2019-04-10T22:50:22.301Z,22.15
2019-04-10T22:52:52.923Z,26.45
2019-04-10T22:55:22.003Z,26.42
2019-04-10T22:57:50.608Z,26.27
2019-04-10T23:00:22.264Z,23.62
2019-04-10T23:02:52.832Z,21.97
2019-04-10T23:05:20.940Z,21.00
2019-04-10T23:07:49.368Z,20.50
2019-04-10T23:10:19.059Z,21.45
2019-04-10T23:12:55.982Z,20.08
2019-04-10T23:15:17.880Z,22.10
2019-04-10T23:17:46.313Z,20.77
2019-04-10T23:20:18.526Z,19.85
2019-04-10T23:22:48.864Z,19.82
2019-04-10T23:25:18.277Z,18.60
2019-04-10T23:27:51.470Z,20.17
2019-04-10T23:30:19.972Z,22.73
2019-04-10T23:32:48.862Z,22.10
2019-04-10T23:35:17.393Z,20.97
2019-04-10T23:37:46.899Z,20.35
2019-04-10T23:40:16.548Z,20.00
2019-04-10T23:42:46.312Z,19.00
2019-04-10T23:45:15.558Z,20.05
2019-04-10T23:47:44.432Z,21.33
2019-04-10T23:50:15.041Z,20.23
2019-04-10T23:52:44.320Z,19.57
2019-04-10T23:55:13.623Z,20.57
2019-04-10T23:57:43.332Z,20.68
